Latest Weather Observations for Orbost

IDV60801

Issued at 3:22 pm EDT Saturday 22 February 2020 (issued every 10 minutes, with the page automatically refreshed every 10 minutes)

About weather observations | Map of weather stations | Latest weather observations for VIC | Other Formats
Station Details ID: 084145 Name: ORBOST Lat: -37.69 Lon: 148.47 Height: 62.65 m
Data from the previous 72 hours. | See also: Recent months at Orbost
Date/Time
EDT
Temp
°C
App
Temp
°C
Dew
Point
°C
Rel
Hum
%
Delta-T
°C
Wind Press
QNH
hPa
Press
MSL
hPa
Rain since
9am
mm
Dir  Spd
km/h
Gust
km/h
Spd
kts
Gust
kts
22/03:00pm 22.1 20.5 12.9 56 5.3 SE 13 28 7 15 1021.4 1021.2 0.0
22/02:30pm 22.4 21.1 13.7 58 5.1 SE 13 22 7 12 1021.8 1021.7 0.0
22/02:00pm 22.4 21.5 13.7 58 5.0 SE 11 22 6 12 1022.1 1022.0 0.0
22/01:30pm 22.4 20.8 14.0 59 4.9 SSE 15 28 8 15 1022.2 1022.1 0.0
22/01:00pm 21.8 20.4 13.4 59 4.8 SE 13 30 7 16 1022.5 1022.4 0.0
22/12:30pm 22.8 21.4 13.3 55 5.5 S 13 20 7 11 1022.7 1022.6 0.0
22/12:00pm 22.8 22.6 13.0 54 5.6 SSW 6 9 3 5 1022.9 1022.8 0.0
22/11:30am 21.6 20.8 11.6 53 5.6 ENE 7 11 4 6 1023.1 1023.0 0.0
22/11:00am 21.0 20.3 11.3 54 5.4 NE 6 9 3 5 1023.3 1023.2 0.0
22/10:30am 20.5 19.6 11.4 56 5.0 E 7 15 4 8 1023.6 1023.5 0.0
22/10:00am 19.8 18.1 11.3 58 4.7 E 11 20 6 11 1024.0 1023.8 0.0
22/09:30am 19.1 17.9 11.7 62 4.1 E 9 15 5 8 1024.2 1024.0 0.0
22/09:00am 17.6 16.2 10.9 65 3.6 ENE 9 17 5 9 1024.0 1023.8 0.0
22/08:30am 16.2 15.8 11.2 72 2.7 ENE 4 7 2 4 1023.9 1023.7 0.0
22/08:00am 14.9 14.6 11.3 79 1.9 E 4 6 2 3 1023.4 1023.3 0.0
22/07:30am 13.9 14.0 11.4 85 1.3 E 2 4 1 2 1023.3 1023.2 0.0
22/07:00am 13.7 13.9 11.9 89 1.0 SE 2 4 1 2 1023.3 1023.2 0.0
22/06:30am 13.6 13.6 11.3 86 1.2 E 2 4 1 2 1023.0 1022.9 0.0
22/06:00am 13.7 13.3 11.0 84 1.4 E 4 6 2 3 1022.8 1022.7 0.0
22/05:30am 14.1 14.1 11.3 83 1.5 E 2 4 1 2 1022.8 1022.7 0.0
22/05:00am 14.3 14.1 10.5 78 2.0 NE 2 4 1 2 1022.8 1022.7 0.0
22/04:30am 14.4 13.9 10.6 78 2.0 NNE 4 4 2 2 1022.7 1022.6 0.0
22/04:00am 14.4 13.9 10.6 78 2.0 NE 4 6 2 3 1023.0 1022.9 0.0
22/03:30am 14.1 13.8 11.3 83 1.5 ENE 4 6 2 3 1023.4 1023.3 0.0
22/03:00am 14.4 14.6 11.7 84 1.4 NE 2 4 1 2 1023.4 1023.3 0.0
22/02:30am 14.0 13.8 11.7 86 1.2 N 4 6 2 3 1023.4 1023.3 0.0
22/02:00am 14.0 14.4 11.3 84 1.4 CALM 0 0 0 0 1023.5 1023.4 0.0
22/01:30am 14.7 15.1 11.1 79 1.9 CALM 0 0 0 0 1023.9 1023.7 0.0
22/01:00am 14.7 14.8 11.5 81 1.7 N 2 2 1 1 1023.9 1023.7 0.0
22/12:30am 14.8 14.5 11.6 81 1.7 N 4 4 2 2 1023.7 1023.6 0.0
22/12:00am 14.8 14.5 11.6 81 1.7 N 4 6 2 3 1023.5 1023.4 0.0
 
Date/Time
EDT
Temp
°C
App
Temp
°C
Dew
Point
°C
Rel
Hum
%
Delta-T
°C
Wind Press
QNH
hPa
Press
MSL
hPa
Rain since
9am
mm
Dir  Spd
km/h
Gust
km/h
Spd
kts
Gust
kts
21/11:30pm 14.9 - 11.7 81 1.7 - - - - - 1023.6 1023.5 0.0
21/11:00pm 15.0 15.0 11.2 78 2.0 NW 2 2 1 1 1023.6 1023.5 0.0
21/10:30pm 15.0 15.1 11.4 79 1.9 NW 2 4 1 2 1023.3 1023.2 0.0
21/10:00pm 15.0 15.0 11.2 78 2.0 NW 2 2 1 1 1023.0 1022.9 0.0
21/09:30pm 15.0 15.0 11.2 78 2.0 WNW 2 4 1 2 1022.7 1022.6 0.0
21/09:00pm 15.2 15.2 11.0 76 2.2 NW 2 4 1 2 1022.3 1022.2 0.0
21/08:30pm 15.4 15.7 11.0 75 2.3 CALM 0 2 0 1 1022.0 1021.9 0.0
21/08:00pm 15.7 15.0 10.2 70 2.9 W 4 6 2 3 1021.8 1021.7 0.0
21/07:30pm 15.9 14.8 10.0 68 3.1 SSW 6 9 3 5 1021.4 1021.2 0.0
21/07:00pm 16.2 15.1 9.8 66 3.3 WSW 6 9 3 5 1021.2 1021.0 0.0
21/06:30pm 16.2 13.9 8.9 62 3.8 SW 11 17 6 9 1021.0 1020.8 0.0
21/06:00pm 17.0 15.3 9.9 63 3.7 SSW 9 13 5 7 1020.6 1020.4 0.0
21/05:30pm 17.8 15.9 10.4 62 4.0 SSW 11 19 6 10 1020.5 1020.3 0.0
21/05:00pm 16.6 13.7 9.8 64 3.6 SSW 15 22 8 12 1020.6 1020.4 0.0
21/04:30pm 17.7 15.7 10.3 62 4.0 SW 11 20 6 11 1020.5 1020.3 0.0
21/04:00pm 17.3 14.6 9.0 58 4.3 SW 13 20 7 11 1020.4 1020.2 0.0
21/03:30pm 17.3 14.0 8.2 55 4.7 SW 15 22 8 12 1020.3 1020.1 0.0
21/03:00pm 17.2 13.5 9.6 61 4.0 WSW 19 28 10 15 1020.3 1020.1 0.0
21/02:30pm 18.0 15.1 11.1 64 3.7 SW 17 24 9 13 1020.2 1020.0 0.0
21/02:00pm 17.0 14.4 11.9 72 2.8 SW 17 24 9 13 1020.2 1020.0 0.0
21/01:30pm 16.4 13.2 12.0 75 2.4 SW 20 30 11 16 1020.0 1019.8 0.0
21/01:00pm 17.0 13.7 12.9 77 2.3 SSW 22 32 12 17 1019.7 1019.5 0.0
21/12:30pm 18.6 16.3 11.7 64 3.8 SW 15 20 8 11 1019.5 1019.3 0.0
21/12:00pm 18.5 16.5 10.1 58 4.5 WNW 11 22 6 12 1019.3 1019.1 0.0
21/11:30am 18.2 16.4 10.8 62 4.0 WNW 11 20 6 11 1019.3 1019.1 0.0
21/11:00am 17.3 14.8 10.9 66 3.4 WSW 15 24 8 13 1019.5 1019.3 0.0
21/10:30am 17.5 15.3 10.9 65 3.6 WSW 13 20 7 11 1019.4 1019.2 0.0
21/10:00am 17.6 15.3 10.5 63 3.8 W 13 22 7 12 1019.3 1019.1 0.0
21/09:30am 16.3 13.5 9.9 66 3.4 WNW 15 20 8 11 1019.0 1018.8 0.0
21/09:00am 15.7 13.7 10.2 70 2.9 WNW 11 19 6 10 1018.9 1018.7 0.0
21/08:30am 15.2 13.1 9.8 70 2.8 WNW 11 19 6 10 1018.7 1018.5 0.0
21/08:00am 14.9 13.2 9.9 72 2.6 WNW 9 15 5 8 1018.3 1018.1 0.0
21/07:30am 14.6 12.8 9.6 72 2.6 NW 9 15 5 8 1017.8 1017.6 0.0
21/07:00am 14.4 12.6 9.4 72 2.6 NW 9 15 5 8 1017.5 1017.3 0.0
21/06:30am 14.4 11.8 9.2 71 2.7 WNW 13 24 7 13 1017.1 1016.9 0.0
21/06:00am 14.3 12.1 9.5 73 2.5 WNW 11 20 6 11 1016.9 1016.7 0.0
21/05:30am 14.3 11.7 9.3 72 2.6 WNW 13 24 7 13 1016.7 1016.5 0.0
21/05:00am 14.3 12.2 9.9 75 2.3 WNW 11 20 6 11 1016.5 1016.3 0.0
21/04:30am 14.2 12.2 10.0 76 2.2 WNW 11 17 6 9 1016.5 1016.3 0.0
21/04:00am 14.4 12.3 9.8 74 2.4 WNW 11 20 6 11 1016.4 1016.2 0.0
21/03:30am 14.5 12.4 9.7 73 2.5 WNW 11 19 6 10 1016.4 1016.2 0.0
21/03:00am 14.5 12.4 9.7 73 2.5 W 11 17 6 9 1016.4 1016.2 0.0
21/02:30am 14.5 12.8 9.7 73 2.5 WNW 9 13 5 7 1016.5 1016.3 0.0
21/02:00am 14.5 12.3 9.5 72 2.6 WNW 11 19 6 10 1016.7 1016.5 0.0
21/01:30am 14.5 12.5 10.1 75 2.3 WNW 11 19 6 10 1017.0 1016.8 0.0
21/01:00am 14.9 12.9 10.3 74 2.4 W 11 17 6 9 1017.0 1016.8 0.0
21/12:30am 14.9 13.4 10.7 76 2.2 W 9 13 5 7 1017.0 1016.8 0.0
21/12:00am 15.1 13.8 11.3 78 2.0 W 9 13 5 7 1016.9 1016.7 0.0
 
Date/Time
EDT
Temp
°C
App
Temp
°C
Dew
Point
°C
Rel
Hum
%
Delta-T
°C
Wind Press
QNH
hPa
Press
MSL
hPa
Rain since
9am
mm
Dir  Spd
km/h
Gust
km/h
Spd
kts
Gust
kts
20/11:30pm 15.1 15.0 12.1 82 1.6 WNW 4 4 2 2 1016.6 1016.4 0.0
20/11:00pm 15.2 14.6 11.8 80 1.8 W 6 9 3 5 1016.6 1016.4 0.0
20/10:30pm 15.3 14.6 11.5 78 2.0 W 6 9 3 5 1016.5 1016.3 0.0
20/10:00pm 15.2 14.6 11.6 79 1.9 W 6 9 3 5 1016.3 1016.1 0.0
20/09:30pm 15.3 15.0 11.5 78 2.0 W 4 7 2 4 1015.9 1015.7 0.0
20/09:00pm 15.2 14.9 11.4 78 2.0 W 4 7 2 4 1015.4 1015.2 0.0
20/08:30pm 15.1 14.3 11.1 77 2.1 W 6 9 3 5 1015.1 1014.9 0.0
20/08:00pm 15.4 14.0 10.8 74 2.4 WSW 9 13 5 7 1014.8 1014.6 0.0
20/07:30pm 15.8 14.0 10.8 72 2.7 SW 11 17 6 9 1014.4 1014.2 0.0
20/07:00pm 16.7 14.5 10.8 68 3.2 SW 13 19 7 10 1013.9 1013.7 0.0
20/06:30pm 16.8 13.4 10.6 67 3.3 SW 19 28 10 15 1013.8 1013.6 0.0
20/06:00pm 17.7 15.2 11.0 65 3.6 SW 15 24 8 13 1013.7 1013.5 0.0
20/05:30pm 18.5 15.4 12.3 67 3.5 SW 20 32 11 17 1013.6 1013.4 0.0
20/05:00pm 18.4 15.6 12.6 69 3.2 SW 19 28 10 15 1013.6 1013.4 0.0
20/04:30pm 18.0 15.9 13.5 75 2.6 SW 17 28 9 15 1013.7 1013.5 0.0
20/04:00pm 17.3 14.9 13.8 80 2.0 SW 19 26 10 14 1013.8 1013.6 0.0
20/03:30pm 17.8 15.2 13.1 74 2.6 SW 19 28 10 15 1013.8 1013.6 0.0
20/03:00pm 18.3 16.0 13.0 71 3.0 SW 17 24 9 13 1013.9 1013.7 0.0
20/02:30pm 18.5 15.5 12.7 69 3.3 SW 20 30 11 16 1014.0 1013.8 0.0
20/02:00pm 18.9 15.7 11.2 61 4.2 WSW 19 26 10 14 1013.9 1013.7 0.0
20/01:30pm 19.1 16.5 11.9 63 4.0 WSW 17 28 9 15 1013.9 1013.7 0.0
20/01:00pm 18.3 15.4 12.3 68 3.3 SW 19 24 10 13 1014.0 1013.8 0.0
20/12:30pm 18.4 15.6 11.2 63 3.9 WSW 17 28 9 15 1014.0 1013.8 0.0
20/12:00pm 19.1 17.0 12.4 65 3.7 W 15 26 8 14 1013.9 1013.7 0.0
20/11:30am 18.0 15.3 11.6 66 3.5 W 17 26 9 14 1013.9 1013.7 0.0
20/11:00am 17.4 14.7 11.7 69 3.1 W 17 24 9 13 1013.9 1013.7 0.0
20/10:30am 16.7 14.2 11.0 69 3.1 W 15 26 8 14 1013.7 1013.5 0.0
20/10:00am 16.4 13.5 11.1 71 2.9 W 17 24 9 13 1013.4 1013.2 0.0
20/09:30am 15.9 12.7 11.1 73 2.6 W 19 28 10 15 1013.2 1013.0 0.0
20/09:00am 15.4 12.4 10.8 74 2.4 W 17 24 9 13 1013.0 1012.8 12.4
20/08:30am 14.7 12.0 10.5 76 2.2 W 15 24 8 13 1012.7 1012.5 12.4
20/08:00am 13.9 12.0 10.5 80 1.8 WNW 11 19 6 10 1012.5 1012.3 12.4
20/07:30am 13.2 10.9 10.4 83 1.5 WNW 13 20 7 11 1012.2 1012.0 12.4
20/07:00am 12.7 11.1 10.2 85 1.3 WNW 9 19 5 10 1011.9 1011.7 12.4
20/06:30am 13.1 11.2 10.6 85 1.3 WNW 11 19 6 10 1011.5 1011.3 12.4
20/06:00am 13.5 11.3 10.9 84 1.4 WNW 13 22 7 12 1011.2 1011.0 12.4
20/05:30am 13.6 11.9 11.1 85 1.3 WNW 11 20 6 11 1011.0 1010.8 12.4
20/05:00am 13.7 11.7 11.4 86 1.2 WNW 13 22 7 12 1010.8 1010.6 12.4
20/04:30am 13.7 11.7 11.6 87 1.1 WNW 13 22 7 12 1010.7 1010.5 12.4
20/04:00am 13.8 11.9 11.7 87 1.1 WNW 13 22 7 12 1010.5 1010.3 12.4
20/03:30am 13.7 12.6 11.8 88 1.0 WNW 9 15 5 8 1010.5 1010.3 12.4
20/03:00am 13.8 12.2 11.7 87 1.1 WNW 11 17 6 9 1010.5 1010.3 12.4
20/02:30am 13.5 12.4 11.9 90 0.9 WNW 9 17 5 9 1010.6 1010.4 12.4
20/02:00am 13.4 11.6 12.0 91 0.8 W 13 22 7 12 1010.8 1010.6 12.4
20/01:30am 13.5 11.6 11.9 90 0.9 WNW 13 19 7 10 1011.2 1011.0 12.4
20/01:00am 13.3 11.9 12.2 93 0.6 W 11 19 6 10 1011.3 1011.1 12.4
20/12:30am 12.9 12.3 12.3 96 0.3 W 7 13 4 7 1011.4 1011.2 12.4
20/12:00am 13.1 11.3 12.2 94 0.5 W 13 20 7 11 1011.4 1011.2 12.2
 
Date/Time
EDT
Temp
°C
App
Temp
°C
Dew
Point
°C
Rel
Hum
%
Delta-T
°C
Wind Press
QNH
hPa
Press
MSL
hPa
Rain since
9am
mm
Dir  Spd
km/h
Gust
km/h
Spd
kts
Gust
kts
19/11:30pm 12.8 11.3 11.9 94 0.5 WNW 11 19 6 10 1011.1 1010.9 12.2
19/11:00pm 12.5 11.4 11.9 96 0.3 WNW 9 19 5 10 1011.2 1011.0 12.2
19/10:30pm 12.4 11.3 11.9 97 0.3 W 9 17 5 9 1011.3 1011.1 12.2
19/10:00pm 12.5 10.4 12.3 99 0.1 WSW 15 24 8 13 1011.5 1011.3 12.2
19/09:30pm 12.7 11.0 12.5 99 0.1 WSW 13 20 7 11 1011.1 1010.9 12.0
19/09:00pm 12.9 11.7 12.7 99 0.1 WSW 11 24 6 13 1010.9 1010.7 11.6
19/08:30pm 12.8 11.9 12.5 98 0.2 W 9 13 5 7 1010.5 1010.3 10.8
19/08:00pm 12.8 11.4 12.2 96 0.3 WSW 11 17 6 9 1010.2 1010.0 10.6
19/07:30pm 13.2 12.3 12.6 96 0.3 WSW 9 17 5 9 1009.6 1009.4 10.6
19/07:00pm 13.3 10.5 12.7 96 0.3 SW 19 30 10 16 1009.3 1009.1 10.4
19/06:30pm 14.0 12.5 13.1 94 0.5 WSW 13 24 7 13 1008.7 1008.5 10.2
19/06:00pm 14.3 11.9 12.7 90 0.9 WSW 17 24 9 13 1008.4 1008.2 10.2
19/05:30pm 15.7 12.6 11.5 76 2.3 WSW 19 30 10 16 1007.9 1007.6 10.2
19/05:00pm 15.9 12.4 10.9 72 2.7 WSW 20 30 11 16 1007.9 1007.6 10.2
19/04:30pm 16.9 12.3 11.0 68 3.2 WSW 26 39 14 21 1007.7 1007.4 10.2
19/04:01pm 15.9 10.9 11.1 73 2.6 WSW 28 46 15 25 1007.4 1007.1 10.2
19/04:00pm 15.8 10.8 11.0 73 2.6 WSW 28 43 15 23 1007.4 1007.1 10.2
19/03:30pm 15.3 13.2 14.8 97 0.3 WSW 19 32 10 17 1007.1 1006.9 10.2

Other formats

Comma delimited format used in spreadsheet applications
http://www.bom.gov.au/fwo/IDV60801/IDV60801.95918.axf

JavaScript Object Notation format (JSON) in row-major order
http://www.bom.gov.au/fwo/IDV60801/IDV60801.95918.json

Data quality

Most of these data are generated automatically and are frequently updated. Quality checks on data are not normally performed. It is possible for incorrect values to appear. Refer to information at About Latest Weather Observations and please check the disclaimer before using these data.